createdAt,value
2022-12-15T00:00:51.945Z,997.27
2022-12-15T00:01:51.849Z,997.23
2022-12-15T00:02:51.920Z,997.22
2022-12-15T00:03:51.838Z,997.21
2022-12-15T00:04:51.729Z,997.24
2022-12-15T00:05:51.696Z,997.25
2022-12-15T00:06:51.688Z,997.31
2022-12-15T00:07:51.625Z,997.32
2022-12-15T00:08:51.594Z,997.35
2022-12-15T00:09:51.561Z,997.32
2022-12-15T00:10:51.526Z,997.38
2022-12-15T00:11:51.492Z,997.37
2022-12-15T00:12:51.464Z,997.33
2022-12-15T00:13:51.425Z,997.35
2022-12-15T00:14:51.393Z,997.31
2022-12-15T00:15:51.510Z,997.29
2022-12-15T00:16:51.324Z,997.32
2022-12-15T00:17:51.311Z,997.34
2022-12-15T00:18:51.256Z,997.38
2022-12-15T00:19:51.222Z,997.41
2022-12-15T00:20:51.190Z,997.44
2022-12-15T00:21:51.155Z,997.40
2022-12-15T00:22:51.122Z,997.40
2022-12-15T00:23:51.087Z,997.42
2022-12-15T00:24:51.056Z,997.41
2022-12-15T00:25:51.021Z,997.41
2022-12-15T00:26:50.989Z,997.42
2022-12-15T00:27:50.954Z,997.44
2022-12-15T00:28:50.920Z,997.40
2022-12-15T00:29:50.889Z,997.48
2022-12-15T00:30:50.914Z,997.50
2022-12-15T00:31:50.935Z,997.49
2022-12-15T00:32:50.786Z,997.48
2022-12-15T00:33:50.779Z,997.45
2022-12-15T00:34:50.720Z,997.49
2022-12-15T00:35:50.690Z,997.46
2022-12-15T00:36:50.653Z,997.49
2022-12-15T00:37:50.617Z,997.44
2022-12-15T00:38:50.588Z,997.45
2022-12-15T00:39:50.550Z,997.43
2022-12-15T00:40:50.522Z,997.40
2022-12-15T00:41:50.491Z,997.39
2022-12-15T00:42:50.457Z,997.42
2022-12-15T00:43:50.417Z,997.37
2022-12-15T00:44:50.387Z,997.35
2022-12-15T00:45:50.352Z,997.38
2022-12-15T00:46:50.392Z,997.37
2022-12-15T00:47:50.285Z,997.42
2022-12-15T00:48:50.247Z,997.40
2022-12-15T00:49:50.235Z,997.38
2022-12-15T00:50:50.182Z,997.44
2022-12-15T00:51:50.150Z,997.46
2022-12-15T00:52:50.115Z,997.44
2022-12-15T00:53:50.080Z,997.47
2022-12-15T00:54:50.045Z,997.45
2022-12-15T00:55:50.012Z,997.45
2022-12-15T00:56:49.984Z,997.47
2022-12-15T00:57:49.943Z,997.45
2022-12-15T00:58:49.915Z,997.44
2022-12-15T00:59:49.877Z,997.48
2022-12-15T01:00:49.851Z,997.43
2022-12-15T01:01:50.002Z,997.40
2022-12-15T01:02:50.093Z,997.43
2022-12-15T01:03:49.797Z,997.45
2022-12-15T01:04:49.708Z,997.42
2022-12-15T01:05:49.700Z,997.46
2022-12-15T01:06:49.640Z,997.52
2022-12-15T01:07:50.112Z,997.53
2022-12-15T01:08:49.577Z,997.53
2022-12-15T01:09:49.540Z,997.54
2022-12-15T01:10:49.513Z,997.61
2022-12-15T01:11:49.468Z,997.63
2022-12-15T01:12:49.437Z,997.65
2022-12-15T01:13:49.914Z,997.62
2022-12-15T01:14:49.372Z,997.58
2022-12-15T01:15:49.380Z,997.59
2022-12-15T01:16:49.302Z,997.56
2022-12-15T01:17:49.269Z,997.55
2022-12-15T01:18:49.533Z,997.58
2022-12-15T01:19:49.198Z,997.61
2022-12-15T01:20:49.165Z,997.57
2022-12-15T01:21:49.155Z,997.55
2022-12-15T01:22:49.099Z,997.58
2022-12-15T01:23:49.063Z,997.53
2022-12-15T01:24:49.033Z,997.56
2022-12-15T01:25:49.570Z,997.55
2022-12-15T01:26:48.964Z,997.60
2022-12-15T01:27:48.931Z,997.57
2022-12-15T01:28:48.903Z,997.57
2022-12-15T01:29:48.871Z,997.56
2022-12-15T01:30:48.834Z,997.57
2022-12-15T01:31:49.742Z,997.59
2022-12-15T01:32:48.764Z,997.55
2022-12-15T01:33:48.727Z,997.59
2022-12-15T01:34:48.695Z,997.62
2022-12-15T01:35:48.660Z,997.65
2022-12-15T01:36:48.628Z,997.65
2022-12-15T01:37:49.957Z,997.68
2022-12-15T01:38:53.852Z,997.68
2022-12-15T01:39:48.526Z,997.69
2022-12-15T01:40:48.495Z,997.70
2022-12-15T01:41:48.460Z,997.69
2022-12-15T01:42:48.424Z,997.73
2022-12-15T01:43:49.753Z,997.73
2022-12-15T01:44:48.358Z,997.72
2022-12-15T01:45:48.323Z,997.70
2022-12-15T01:46:48.394Z,997.70
2022-12-15T01:47:48.256Z,997.71
2022-12-15T01:48:48.222Z,997.73
2022-12-15T01:49:49.307Z,997.76
2022-12-15T01:50:48.156Z,997.76
2022-12-15T01:51:48.122Z,997.78
2022-12-15T01:52:49.708Z,997.75
2022-12-15T01:53:50.176Z,997.74
2022-12-15T01:54:48.509Z,997.83
2022-12-15T01:55:49.750Z,997.78
2022-12-15T01:56:47.952Z,997.80
2022-12-15T01:57:47.923Z,997.83
2022-12-15T01:58:47.881Z,997.79
2022-12-15T01:59:47.849Z,997.79
2022-12-15T02:00:47.914Z,997.81
2022-12-15T02:01:49.884Z,997.80
2022-12-15T02:02:47.845Z,997.77
2022-12-15T02:03:47.711Z,997.80
2022-12-15T02:04:47.679Z,997.83
2022-12-15T02:05:47.644Z,997.78
2022-12-15T02:06:47.612Z,997.79
2022-12-15T02:07:47.582Z,997.80
2022-12-15T02:08:47.552Z,997.84
2022-12-15T02:09:47.534Z,997.86
2022-12-15T02:10:47.473Z,997.87
2022-12-15T02:11:47.442Z,997.89
2022-12-15T02:12:47.405Z,997.91
2022-12-15T02:13:47.373Z,997.86
2022-12-15T02:14:47.337Z,997.87
2022-12-15T02:15:47.306Z,997.83
2022-12-15T02:16:47.367Z,997.87
2022-12-15T02:17:47.237Z,997.92
2022-12-15T02:18:47.202Z,997.88
2022-12-15T02:19:47.169Z,997.91
2022-12-15T02:20:47.135Z,997.91
2022-12-15T02:21:47.104Z,997.94
2022-12-15T02:22:47.063Z,997.96
2022-12-15T02:23:47.032Z,997.95
2022-12-15T02:24:49.669Z,997.99
2022-12-15T02:25:47.032Z,997.97
2022-12-15T02:26:46.927Z,997.96
2022-12-15T02:27:46.896Z,997.91
2022-12-15T02:28:46.861Z,997.92
2022-12-15T02:29:46.829Z,997.93
2022-12-15T02:30:46.793Z,997.96
2022-12-15T02:31:46.796Z,997.95
2022-12-15T02:32:46.724Z,997.94
2022-12-15T02:33:46.691Z,997.98
2022-12-15T02:34:46.655Z,998.01
2022-12-15T02:35:46.625Z,998.05
2022-12-15T02:36:46.588Z,998.05
2022-12-15T02:37:49.879Z,998.01
2022-12-15T02:38:46.521Z,998.09
2022-12-15T02:39:46.486Z,998.07
2022-12-15T02:40:46.452Z,998.03
2022-12-15T02:41:46.443Z,998.07
2022-12-15T02:42:46.381Z,998.00
2022-12-15T02:43:46.351Z,998.03
2022-12-15T02:44:46.316Z,998.01
2022-12-15T02:45:46.333Z,998.01
2022-12-15T02:46:46.248Z,997.99
2022-12-15T02:47:46.545Z,997.97
2022-12-15T02:48:46.178Z,998.00
2022-12-15T02:49:46.147Z,998.01
2022-12-15T02:50:46.109Z,997.99
2022-12-15T02:51:46.079Z,997.99
2022-12-15T02:52:46.044Z,998.00
2022-12-15T02:53:46.011Z,998.03
2022-12-15T02:54:45.976Z,997.94
2022-12-15T02:55:45.942Z,997.99
2022-12-15T02:56:45.908Z,997.97
2022-12-15T02:57:45.897Z,997.96
2022-12-15T02:58:45.841Z,997.96
2022-12-15T02:59:45.806Z,997.99
2022-12-15T03:00:45.849Z,997.98
2022-12-15T03:01:46.012Z,998.02
2022-12-15T03:02:45.788Z,998.04
2022-12-15T03:03:45.673Z,997.99
2022-12-15T03:04:45.680Z,998.01
2022-12-15T03:05:45.603Z,998.01
2022-12-15T03:06:45.569Z,998.03
2022-12-15T03:07:45.534Z,998.00
2022-12-15T03:08:45.497Z,998.00
2022-12-15T03:09:45.467Z,998.05
2022-12-15T03:10:45.434Z,998.01
2022-12-15T03:11:45.399Z,998.04
2022-12-15T03:12:45.364Z,998.04
2022-12-15T03:13:45.355Z,998.05
2022-12-15T03:14:45.294Z,998.07
2022-12-15T03:15:45.261Z,998.06
2022-12-15T03:16:45.275Z,998.05
2022-12-15T03:17:45.195Z,998.05
2022-12-15T03:18:45.160Z,998.05
2022-12-15T03:19:45.276Z,998.05
2022-12-15T03:20:45.091Z,998.03
2022-12-15T03:21:45.059Z,998.05
2022-12-15T03:22:45.023Z,998.05
2022-12-15T03:23:44.992Z,998.03
2022-12-15T03:24:44.959Z,998.06
2022-12-15T03:25:44.926Z,998.06
2022-12-15T03:26:44.888Z,998.09
2022-12-15T03:27:44.858Z,998.11
2022-12-15T03:28:44.821Z,998.10
2022-12-15T03:29:44.811Z,998.09
2022-12-15T03:30:44.898Z,998.15
2022-12-15T03:31:44.816Z,998.14
2022-12-15T03:32:44.688Z,998.14
2022-12-15T03:33:44.656Z,998.14
2022-12-15T03:34:44.620Z,998.16
2022-12-15T03:35:44.585Z,998.17
2022-12-15T03:36:44.554Z,998.21
2022-12-15T03:37:44.520Z,998.24
2022-12-15T03:38:44.482Z,998.21
2022-12-15T03:39:44.452Z,998.26
2022-12-15T03:40:44.414Z,998.31
2022-12-15T03:41:44.383Z,998.30
2022-12-15T03:42:44.348Z,998.33
2022-12-15T03:43:44.318Z,998.32
2022-12-15T03:44:44.279Z,998.34
2022-12-15T03:45:44.352Z,998.37
2022-12-15T03:46:44.219Z,998.42
2022-12-15T03:47:44.183Z,998.36
2022-12-15T03:48:44.154Z,998.40
2022-12-15T03:49:44.114Z,998.38
2022-12-15T03:50:44.078Z,998.37
2022-12-15T03:51:44.047Z,998.36
2022-12-15T03:52:44.011Z,998.35
2022-12-15T03:53:43.983Z,998.39
2022-12-15T03:54:43.942Z,998.36
2022-12-15T03:55:43.917Z,998.40
2022-12-15T03:56:43.877Z,998.36
2022-12-15T03:57:43.849Z,998.40
2022-12-15T03:58:43.807Z,998.41
2022-12-15T03:59:43.778Z,998.38
2022-12-15T04:00:43.741Z,998.43
2022-12-15T04:01:43.854Z,998.42
2022-12-15T04:02:43.852Z,998.39
2022-12-15T04:03:43.699Z,998.40
2022-12-15T04:04:43.605Z,998.37
2022-12-15T04:05:43.574Z,998.35
2022-12-15T04:06:43.539Z,998.36
2022-12-15T04:07:43.507Z,998.33
2022-12-15T04:08:43.471Z,998.37
2022-12-15T04:09:43.440Z,998.33
2022-12-15T04:10:43.402Z,998.35
2022-12-15T04:11:43.369Z,998.42
2022-12-15T04:12:43.336Z,998.36
2022-12-15T04:13:43.315Z,998.38
2022-12-15T04:14:43.267Z,998.33
2022-12-15T04:15:43.233Z,998.35
2022-12-15T04:16:43.243Z,998.37
2022-12-15T04:17:43.188Z,998.39
2022-12-15T04:18:43.133Z,998.41
2022-12-15T04:19:43.101Z,998.42
2022-12-15T04:20:43.067Z,998.38
2022-12-15T04:21:43.036Z,998.42
2022-12-15T04:22:43.001Z,998.37
2022-12-15T04:23:42.965Z,998.41
2022-12-15T04:24:42.932Z,998.39
2022-12-15T04:25:42.952Z,998.41
2022-12-15T04:26:42.863Z,998.43
2022-12-15T04:27:42.834Z,998.45
2022-12-15T04:28:42.799Z,998.50
2022-12-15T04:29:42.765Z,998.43
2022-12-15T04:30:42.815Z,998.49
2022-12-15T04:31:42.703Z,998.51
2022-12-15T04:32:42.663Z,998.51
2022-12-15T04:33:42.652Z,998.52
2022-12-15T04:34:42.596Z,998.54
2022-12-15T04:35:42.566Z,998.60
2022-12-15T04:36:42.533Z,998.56
2022-12-15T04:37:42.502Z,998.57
2022-12-15T04:38:49.898Z,998.58
2022-12-15T04:39:42.431Z,998.58
2022-12-15T04:40:42.445Z,998.61
2022-12-15T04:41:42.364Z,998.61
2022-12-15T04:42:42.328Z,998.62
2022-12-15T04:43:42.296Z,998.64
2022-12-15T04:44:42.261Z,998.65
2022-12-15T04:45:42.324Z,998.63
2022-12-15T04:46:42.234Z,998.66
2022-12-15T04:47:42.162Z,998.70
2022-12-15T04:48:42.136Z,998.69
2022-12-15T04:49:42.110Z,998.73
2022-12-15T04:50:42.057Z,998.69
2022-12-15T04:51:42.022Z,998.69
2022-12-15T04:52:41.993Z,998.67
2022-12-15T04:53:41.961Z,998.67
2022-12-15T04:54:41.924Z,998.66
2022-12-15T04:55:41.892Z,998.70
2022-12-15T04:56:41.863Z,998.67
2022-12-15T04:57:41.824Z,998.67
2022-12-15T04:58:41.789Z,998.69
2022-12-15T04:59:41.760Z,998.70
2022-12-15T05:00:41.722Z,998.74
2022-12-15T05:01:41.840Z,998.76
2022-12-15T05:02:41.710Z,998.75
2022-12-15T05:03:41.623Z,998.76
2022-12-15T05:04:41.677Z,998.74
2022-12-15T05:05:41.629Z,998.79
2022-12-15T05:06:41.522Z,998.76
2022-12-15T05:07:41.487Z,998.75
2022-12-15T05:08:41.453Z,998.82
2022-12-15T05:09:41.421Z,998.77
2022-12-15T05:10:41.437Z,998.78
2022-12-15T05:11:41.351Z,998.78
2022-12-15T05:12:41.316Z,998.81
2022-12-15T05:13:41.284Z,998.81
2022-12-15T05:14:41.249Z,998.83
2022-12-15T05:15:41.301Z,998.84
2022-12-15T05:16:41.295Z,998.79
2022-12-15T05:17:41.822Z,998.79
2022-12-15T05:18:41.114Z,998.82
2022-12-15T05:19:41.084Z,998.88
2022-12-15T05:20:41.099Z,998.81
2022-12-15T05:21:41.041Z,998.86
2022-12-15T05:22:40.981Z,998.86
2022-12-15T05:23:40.949Z,998.85
2022-12-15T05:24:40.915Z,998.83
2022-12-15T05:25:40.884Z,998.87
2022-12-15T05:26:40.856Z,998.85
2022-12-15T05:27:40.816Z,998.89
2022-12-15T05:28:40.780Z,998.94
2022-12-15T05:29:40.754Z,998.91
2022-12-15T05:30:40.758Z,998.88
2022-12-15T05:31:40.682Z,998.93
2022-12-15T05:32:40.648Z,998.94
2022-12-15T05:33:40.617Z,998.90
2022-12-15T05:34:40.583Z,998.93
2022-12-15T05:35:40.548Z,998.87
2022-12-15T05:36:40.514Z,998.86
2022-12-15T05:37:40.503Z,998.87
2022-12-15T05:38:40.449Z,998.85
2022-12-15T05:39:40.413Z,998.83
2022-12-15T05:40:40.378Z,998.85
2022-12-15T05:41:40.399Z,998.87
2022-12-15T05:42:40.318Z,998.83
2022-12-15T05:43:40.284Z,998.86
2022-12-15T05:44:40.246Z,998.86
2022-12-15T05:45:40.217Z,998.85
2022-12-15T05:46:40.304Z,998.89
2022-12-15T05:47:40.145Z,998.95
2022-12-15T05:48:40.113Z,998.93
2022-12-15T05:49:40.080Z,998.98
2022-12-15T05:50:40.045Z,998.95
2022-12-15T05:51:40.021Z,998.99
2022-12-15T05:52:40.783Z,998.98
2022-12-15T05:53:39.964Z,999.00
2022-12-15T05:54:39.911Z,999.04
2022-12-15T05:55:39.879Z,999.04
2022-12-15T05:56:39.896Z,999.05
2022-12-15T05:57:39.814Z,999.10
2022-12-15T05:58:44.870Z,999.13
2022-12-15T05:59:39.749Z,999.15
2022-12-15T06:00:39.709Z,999.18
2022-12-15T06:01:39.806Z,999.13
2022-12-15T06:02:39.725Z,999.24
2022-12-15T06:03:39.616Z,999.23
2022-12-15T06:04:39.669Z,999.23
2022-12-15T06:05:39.547Z,999.23
2022-12-15T06:06:39.511Z,999.26
2022-12-15T06:07:39.480Z,999.24
2022-12-15T06:08:39.443Z,999.23
2022-12-15T06:09:39.434Z,999.23
2022-12-15T06:10:39.378Z,999.23
2022-12-15T06:11:39.352Z,999.24
2022-12-15T06:12:39.312Z,999.28
2022-12-15T06:13:39.279Z,999.28
2022-12-15T06:14:39.252Z,999.27
2022-12-15T06:15:39.212Z,999.31
2022-12-15T06:16:49.834Z,999.30
2022-12-15T06:17:39.145Z,999.31
2022-12-15T06:18:39.110Z,999.36
2022-12-15T06:19:39.078Z,999.41
2022-12-15T06:20:39.043Z,999.41
2022-12-15T06:21:39.012Z,999.38
2022-12-15T06:22:38.980Z,999.38
2022-12-15T06:23:38.941Z,999.45
2022-12-15T06:24:38.912Z,999.42
2022-12-15T06:25:38.997Z,999.40
2022-12-15T06:26:38.848Z,999.43
2022-12-15T06:27:38.810Z,999.52
2022-12-15T06:28:38.780Z,999.46
2022-12-15T06:29:38.742Z,999.45
2022-12-15T06:30:38.711Z,999.50
2022-12-15T06:31:38.745Z,999.50
2022-12-15T06:32:38.641Z,999.55
2022-12-15T06:33:38.610Z,999.56
2022-12-15T06:34:38.578Z,999.55
2022-12-15T06:35:38.543Z,999.51
2022-12-15T06:36:38.508Z,999.54
2022-12-15T06:37:38.476Z,999.53
2022-12-15T06:38:38.442Z,999.52
2022-12-15T06:39:38.406Z,999.46
2022-12-15T06:40:38.469Z,999.47
2022-12-15T06:41:38.354Z,999.50
2022-12-15T06:42:38.307Z,999.51
2022-12-15T06:43:38.275Z,999.49
2022-12-15T06:44:38.244Z,999.52
2022-12-15T06:45:38.207Z,999.47
2022-12-15T06:46:38.244Z,999.51
2022-12-15T06:47:38.138Z,999.52
2022-12-15T06:48:38.106Z,999.53
2022-12-15T06:49:38.074Z,999.50
2022-12-15T06:50:38.040Z,999.54
2022-12-15T06:51:38.009Z,999.51
2022-12-15T06:52:37.972Z,999.50
2022-12-15T06:53:38.012Z,999.50
2022-12-15T06:54:37.934Z,999.51
2022-12-15T06:55:37.918Z,999.53
2022-12-15T06:56:37.872Z,999.49
2022-12-15T06:57:37.932Z,999.50
2022-12-15T06:58:37.841Z,999.49
2022-12-15T06:59:37.787Z,999.45
2022-12-15T07:00:37.705Z,999.45
2022-12-15T07:01:37.940Z,999.45
2022-12-15T07:02:37.825Z,999.45
2022-12-15T07:03:38.344Z,999.41
2022-12-15T07:04:37.571Z,999.43
2022-12-15T07:05:37.538Z,999.42
2022-12-15T07:06:37.766Z,999.48
2022-12-15T07:07:37.468Z,999.42
2022-12-15T07:08:41.293Z,999.42
2022-12-15T07:09:37.401Z,999.46
2022-12-15T07:10:37.370Z,999.49
2022-12-15T07:11:37.334Z,999.52
2022-12-15T07:12:37.304Z,999.49
2022-12-15T07:13:37.376Z,999.50
2022-12-15T07:14:37.249Z,999.50
2022-12-15T07:15:37.203Z,999.54
2022-12-15T07:16:37.280Z,999.55
2022-12-15T07:17:37.135Z,999.55
2022-12-15T07:18:37.101Z,999.49
2022-12-15T07:19:37.071Z,999.51
2022-12-15T07:20:37.038Z,999.53
2022-12-15T07:21:37.003Z,999.49
2022-12-15T07:22:36.966Z,999.52
2022-12-15T07:23:53.396Z,999.54
2022-12-15T07:24:36.905Z,999.57
2022-12-15T07:25:36.863Z,999.56
2022-12-15T07:26:36.835Z,999.59
2022-12-15T07:27:36.797Z,999.57
2022-12-15T07:28:36.776Z,999.57
2022-12-15T07:29:36.751Z,999.61
2022-12-15T07:30:38.881Z,999.59
2022-12-15T07:31:36.737Z,999.65
2022-12-15T07:32:36.628Z,999.69
2022-12-15T07:33:36.597Z,999.68
2022-12-15T07:34:36.562Z,999.71
2022-12-15T07:35:36.527Z,999.71
2022-12-15T07:36:36.496Z,999.74
2022-12-15T07:37:36.463Z,999.80
2022-12-15T07:38:36.433Z,999.84
2022-12-15T07:39:36.392Z,999.80
2022-12-15T07:40:36.360Z,999.81
2022-12-15T07:41:36.326Z,999.85
2022-12-15T07:42:36.299Z,999.87
2022-12-15T07:43:36.777Z,999.87
2022-12-15T07:44:36.229Z,999.91
2022-12-15T07:45:36.284Z,999.88
2022-12-15T07:46:36.218Z,999.91
2022-12-15T07:47:36.126Z,999.99
2022-12-15T07:48:36.092Z,999.99
2022-12-15T07:49:36.059Z,1000.02
2022-12-15T07:50:36.026Z,999.98
2022-12-15T07:51:35.995Z,1000.01
2022-12-15T07:52:35.958Z,1000.01
2022-12-15T07:53:36.136Z,1000.01
2022-12-15T07:54:35.890Z,999.98
2022-12-15T07:55:57.577Z,1000.00
2022-12-15T07:56:39.176Z,1000.01
2022-12-15T07:57:35.787Z,999.98
2022-12-15T07:58:35.789Z,999.97
2022-12-15T07:59:35.719Z,999.97
2022-12-15T08:00:35.689Z,999.95
2022-12-15T08:01:35.807Z,999.94
2022-12-15T08:02:35.848Z,1000.00
2022-12-15T08:03:36.421Z,1000.04
2022-12-15T08:04:35.574Z,1000.05
2022-12-15T08:05:35.516Z,1000.10
2022-12-15T08:06:35.484Z,1000.05
2022-12-15T08:07:35.461Z,1000.10
2022-12-15T08:08:35.983Z,1000.14
2022-12-15T08:09:35.385Z,1000.11
2022-12-15T08:10:35.355Z,1000.16
2022-12-15T08:11:35.355Z,1000.21
2022-12-15T08:12:35.281Z,1000.18
2022-12-15T08:14:05.070Z,1000.23
2022-12-15T08:14:35.216Z,1000.20
2022-12-15T08:15:35.181Z,1000.23
2022-12-15T08:16:35.252Z,1000.22
2022-12-15T08:17:35.228Z,1000.24
2022-12-15T08:18:35.085Z,1000.26
2022-12-15T08:19:35.044Z,1000.21
2022-12-15T08:20:35.018Z,1000.26
2022-12-15T08:21:34.987Z,1000.25
2022-12-15T08:22:34.947Z,1000.20
2022-12-15T08:23:34.967Z,1000.19
2022-12-15T08:24:34.882Z,1000.20
2022-12-15T08:25:34.845Z,1000.18
2022-12-15T08:26:34.809Z,1000.16
2022-12-15T08:27:34.780Z,1000.21
2022-12-15T08:28:34.743Z,1000.23
2022-12-15T08:29:51.505Z,1000.21
2022-12-15T08:30:34.677Z,1000.22
2022-12-15T08:31:34.692Z,1000.23
2022-12-15T08:32:34.609Z,1000.29
2022-12-15T08:33:34.841Z,1000.28
2022-12-15T08:34:34.540Z,1000.33
2022-12-15T08:35:55.773Z,1000.38
2022-12-15T08:36:34.474Z,1000.38
2022-12-15T08:37:34.439Z,1000.38
2022-12-15T08:38:34.405Z,1000.41
2022-12-15T08:39:34.371Z,1000.43
2022-12-15T08:40:34.339Z,1000.47
2022-12-15T08:41:34.304Z,1000.45
2022-12-15T08:42:34.270Z,1000.41
2022-12-15T08:43:34.766Z,1000.42
2022-12-15T08:44:34.201Z,1000.47
2022-12-15T08:45:34.223Z,1000.47
2022-12-15T08:46:34.291Z,1000.53
2022-12-15T08:47:34.102Z,1000.51
2022-12-15T08:48:34.081Z,1000.56
2022-12-15T08:49:34.052Z,1000.52
2022-12-15T08:50:34.003Z,1000.57
2022-12-15T08:51:33.967Z,1000.53
2022-12-15T08:52:33.938Z,1000.53
2022-12-15T08:53:33.906Z,1000.48
2022-12-15T08:54:33.875Z,1000.54
2022-12-15T08:55:33.833Z,1000.54
2022-12-15T08:56:33.802Z,1000.51
2022-12-15T08:57:33.765Z,1000.47
2022-12-15T08:58:33.736Z,1000.45
2022-12-15T08:59:33.696Z,1000.46
2022-12-15T09:00:33.672Z,1000.43
2022-12-15T09:01:33.853Z,1000.43
2022-12-15T09:02:33.728Z,1000.47
2022-12-15T09:03:34.048Z,1000.48
2022-12-15T09:04:33.560Z,1000.51
2022-12-15T09:05:33.521Z,1000.50
2022-12-15T09:06:33.475Z,1000.54
2022-12-15T09:07:33.430Z,1000.55
2022-12-15T09:08:33.400Z,1000.53
2022-12-15T09:09:33.366Z,1000.57
2022-12-15T09:10:33.329Z,1000.55
2022-12-15T09:11:33.294Z,1000.50
2022-12-15T09:12:33.266Z,1000.55
2022-12-15T09:13:33.715Z,1000.49
2022-12-15T09:14:33.197Z,1000.49
2022-12-15T09:16:00.223Z,1000.48
2022-12-15T09:16:33.282Z,1000.50
2022-12-15T09:17:33.146Z,1000.57
2022-12-15T09:18:33.061Z,1000.51
2022-12-15T09:19:33.027Z,1000.51
2022-12-15T09:20:32.998Z,1000.56
2022-12-15T09:21:32.987Z,1000.50
2022-12-15T09:22:32.935Z,1000.54
2022-12-15T09:23:33.354Z,1000.58
2022-12-15T09:24:35.086Z,1000.55
2022-12-15T09:25:32.829Z,1000.59
2022-12-15T09:26:32.803Z,1000.57
2022-12-15T09:27:32.764Z,1000.62
2022-12-15T09:28:32.731Z,1000.60
2022-12-15T09:29:32.696Z,1000.65
2022-12-15T09:30:32.758Z,1000.62
2022-12-15T09:31:32.706Z,1000.62
2022-12-15T09:32:32.595Z,1000.67
2022-12-15T09:33:33.003Z,1000.69
2022-12-15T09:34:32.529Z,1000.67
2022-12-15T09:35:32.494Z,1000.67
2022-12-15T09:36:32.744Z,1000.70
2022-12-15T09:37:32.543Z,1000.70
2022-12-15T09:38:32.399Z,1000.74
2022-12-15T09:39:32.365Z,1000.71
2022-12-15T09:40:32.333Z,1000.79
2022-12-15T09:41:32.300Z,1000.79
2022-12-15T09:42:32.275Z,1000.81
2022-12-15T09:43:34.696Z,1000.81
2022-12-15T09:44:32.204Z,1000.74
2022-12-15T09:45:32.168Z,1000.78
2022-12-15T09:46:32.169Z,1000.82
2022-12-15T09:47:32.101Z,1000.86
2022-12-15T09:48:32.073Z,1000.84
2022-12-15T09:49:32.039Z,1000.85
2022-12-15T09:50:32.007Z,1000.86
2022-12-15T09:51:31.976Z,1000.91
2022-12-15T09:52:31.941Z,1000.90
2022-12-15T09:53:54.305Z,1000.94
2022-12-15T09:54:31.935Z,1000.93
2022-12-15T09:55:31.846Z,1000.98
2022-12-15T09:56:31.814Z,1001.01
2022-12-15T09:57:31.779Z,1001.02
2022-12-15T09:58:31.746Z,1001.02
2022-12-15T09:59:31.718Z,1001.03
2022-12-15T10:00:31.686Z,1001.05
2022-12-15T10:01:31.691Z,1001.02
2022-12-15T10:02:31.709Z,1001.02
2022-12-15T10:03:32.233Z,1000.99
2022-12-15T10:04:31.691Z,1000.99
2022-12-15T10:05:57.737Z,1001.05
2022-12-15T10:06:33.548Z,1001.05
2022-12-15T10:07:31.463Z,1001.02
2022-12-15T10:08:31.431Z,1001.04
2022-12-15T10:09:31.433Z,1001.06
2022-12-15T10:10:31.371Z,1001.11
2022-12-15T10:11:31.338Z,1001.08
2022-12-15T10:12:31.306Z,1001.07
2022-12-15T10:13:31.808Z,1001.11
2022-12-15T10:14:31.245Z,1001.14
2022-12-15T10:15:31.287Z,1001.13
2022-12-15T10:16:31.191Z,1001.15
2022-12-15T10:17:31.155Z,1001.17
2022-12-15T10:18:31.121Z,1001.15
2022-12-15T10:19:31.087Z,1001.09
2022-12-15T10:20:31.060Z,1001.08
2022-12-15T10:21:31.028Z,1001.09
2022-12-15T10:22:30.998Z,1001.09
2022-12-15T10:23:31.443Z,1001.09
2022-12-15T10:25:08.015Z,1001.10
2022-12-15T10:25:31.171Z,1001.11
2022-12-15T10:26:30.871Z,1001.10
2022-12-15T10:27:30.838Z,1001.14
2022-12-15T10:28:30.808Z,1001.15
2022-12-15T10:29:30.818Z,1001.18
2022-12-15T10:30:30.820Z,1001.13
2022-12-15T10:31:30.781Z,1001.17
2022-12-15T10:32:30.686Z,1001.17
2022-12-15T10:33:31.155Z,1001.17
2022-12-15T10:34:30.675Z,1001.25
2022-12-15T10:35:30.596Z,1001.24
2022-12-15T10:36:30.563Z,1001.20
2022-12-15T10:37:30.532Z,1001.29
2022-12-15T10:38:30.496Z,1001.25
2022-12-15T10:39:30.472Z,1001.29
2022-12-15T10:40:30.440Z,1001.30
2022-12-15T10:41:30.527Z,1001.35
2022-12-15T10:42:30.385Z,1001.30
2022-12-15T10:43:30.873Z,1001.34
2022-12-15T10:44:32.326Z,1001.36
2022-12-15T10:45:30.306Z,1001.38
2022-12-15T10:46:30.279Z,1001.34
2022-12-15T10:47:30.229Z,1001.40
2022-12-15T10:48:30.197Z,1001.41
2022-12-15T10:49:30.165Z,1001.45
2022-12-15T10:50:30.135Z,1001.42
2022-12-15T10:51:30.108Z,1001.43
2022-12-15T10:52:30.074Z,1001.44
2022-12-15T10:53:30.461Z,1001.43
2022-12-15T10:54:30.018Z,1001.37
2022-12-15T10:55:29.985Z,1001.42
2022-12-15T10:56:33.785Z,1001.43
2022-12-15T10:57:29.957Z,1001.46
2022-12-15T10:58:29.910Z,1001.41
2022-12-15T10:59:29.868Z,1001.40
2022-12-15T11:00:29.834Z,1001.41
2022-12-15T11:01:29.997Z,1001.41
2022-12-15T11:02:30.075Z,1001.39
2022-12-15T11:03:30.683Z,1001.36
2022-12-15T11:04:29.886Z,1001.29
2022-12-15T11:05:29.689Z,1001.32
2022-12-15T11:06:29.658Z,1001.25
2022-12-15T11:07:29.628Z,1001.15
2022-12-15T11:08:29.600Z,1001.17
2022-12-15T11:09:29.572Z,1001.18
2022-12-15T11:10:29.541Z,1001.19
2022-12-15T11:11:29.511Z,1001.21
2022-12-15T11:12:29.481Z,1001.23
2022-12-15T11:13:33.200Z,1001.22
2022-12-15T11:14:29.521Z,1001.18
2022-12-15T11:15:29.485Z,1001.19
2022-12-15T11:16:29.361Z,1001.19
2022-12-15T11:17:29.333Z,1001.19
2022-12-15T11:18:29.301Z,1001.19
2022-12-15T11:19:29.276Z,1001.22
2022-12-15T11:20:29.240Z,1001.18
2022-12-15T11:21:29.214Z,1001.18
2022-12-15T11:22:29.181Z,1001.20
2022-12-15T11:23:29.696Z,1001.18
2022-12-15T11:24:29.122Z,1001.18
2022-12-15T11:25:29.097Z,1001.21
2022-12-15T11:26:29.062Z,1001.15
2022-12-15T11:27:29.034Z,1001.16
2022-12-15T11:28:29.005Z,1001.18
2022-12-15T11:29:28.992Z,1001.10
2022-12-15T11:30:28.942Z,1001.11
2022-12-15T11:31:28.914Z,1001.10
2022-12-15T11:32:28.879Z,1001.04
2022-12-15T11:33:29.235Z,1001.08
2022-12-15T11:34:28.818Z,1001.05
2022-12-15T11:35:28.789Z,1001.10
2022-12-15T11:36:28.758Z,1001.07
2022-12-15T11:37:34.287Z,1001.07
2022-12-15T11:38:28.780Z,1001.09
2022-12-15T11:39:28.667Z,1001.12
2022-12-15T11:40:28.635Z,1001.08
2022-12-15T11:41:28.608Z,1001.03
2022-12-15T11:42:28.573Z,1001.06
2022-12-15T11:43:29.017Z,1000.99
2022-12-15T11:44:28.513Z,1001.01
2022-12-15T11:45:28.512Z,1001.01
2022-12-15T11:46:28.450Z,1000.99
2022-12-15T11:47:28.420Z,1000.93
2022-12-15T11:48:28.390Z,1000.95
2022-12-15T11:49:28.357Z,1000.97
2022-12-15T11:50:28.334Z,1000.96
2022-12-15T11:51:28.299Z,1000.93
2022-12-15T11:52:28.264Z,1000.96
2022-12-15T11:53:28.649Z,1000.94
2022-12-15T11:54:28.206Z,1000.94
2022-12-15T11:55:33.188Z,1000.93
2022-12-15T11:56:28.147Z,1000.88
2022-12-15T11:57:28.113Z,1000.94
2022-12-15T11:58:28.434Z,1000.88
2022-12-15T11:59:28.054Z,1000.93
2022-12-15T12:00:28.015Z,1000.86
2022-12-15T12:01:28.088Z,1000.86
2022-12-15T12:02:28.092Z,1000.85
2022-12-15T12:03:27.924Z,1000.87
2022-12-15T12:04:27.891Z,1000.87
2022-12-15T12:05:27.865Z,1000.94
2022-12-15T12:06:27.828Z,1000.93
2022-12-15T12:07:27.798Z,1000.99
2022-12-15T12:08:27.773Z,1001.02
2022-12-15T12:09:27.739Z,1001.04
2022-12-15T12:10:27.706Z,1001.05
2022-12-15T12:11:27.714Z,1001.04
2022-12-15T12:12:27.641Z,1001.09
2022-12-15T12:13:27.612Z,1001.07
2022-12-15T12:14:27.577Z,1001.07
2022-12-15T12:15:27.550Z,1001.09
2022-12-15T12:16:27.518Z,1001.06
2022-12-15T12:17:27.512Z,1001.06
2022-12-15T12:18:27.454Z,1001.01
2022-12-15T12:19:27.532Z,1001.03
2022-12-15T12:20:27.391Z,1001.02